Time;durP1;ratioP1;P1;durP2;ratioP2;P2;SDS_P1;SDS_P2;PMS_P1;PMS_P2;Temp;Humidity;BMP_temperature;BMP_pressure;BME280_temperature;BME280_humidity;BME280_pressure;Samples;Min_cycle;Max_cycle;Signal;HPM_P1;HPM_P2
2023/06/15 00:01:17;;;;;;;4.50;4.10;;;19.80;35.80;;;;;;20879;6732;116942;-76
2023/06/15 00:03:53;;;;;;;4.60;4.20;;;19.60;35.90;;;;;;20885;6735;118428;-75
2023/06/15 00:06:28;;;;;;;6.70;4.53;;;19.50;36.10;;;;;;20755;6750;121792;-75
2023/06/15 00:09:04;;;;;;;5.23;4.73;;;19.70;37.70;;;;;;20641;6741;279050;-77
2023/06/15 00:11:40;;;;;;;5.10;4.70;;;19.70;37.70;;;;;;20891;6750;118306;-74
2023/06/15 00:14:16;;;;;;;5.15;4.70;;;19.80;37.30;;;;;;20620;6741;305852;-77
2023/06/15 00:16:52;;;;;;;5.20;4.90;;;20.30;37.50;;;;;;20523;6759;280508;-75
2023/06/15 00:19:28;;;;;;;4.40;4.03;;;20.20;37.40;;;;;;20913;6730;117826;-77
2023/06/15 00:22:04;;;;;;;4.77;4.47;;;20.00;37.20;;;;;;20934;6723;117269;-75
2023/06/15 00:24:39;;;;;;;6.67;4.33;;;19.60;37.50;;;;;;20818;6706;140427;-75
2023/06/15 00:27:15;;;;;;;4.60;4.20;;;19.10;38.00;;;;;;20818;6704;117256;-74
2023/06/15 00:29:52;;;;;;;5.30;4.90;;;19.10;38.00;;;;;;20759;6704;274996;-75
2023/06/15 00:32:27;;;;;;;5.25;4.80;;;19.40;38.60;;;;;;20712;6716;332867;-74
2023/06/15 00:35:04;;;;;;;5.23;4.73;;;20.10;37.80;;;;;;20716;6715;305386;-74
2023/06/15 00:37:41;;;;;;;5.07;4.77;;;20.10;37.40;;;;;;20726;6715;120738;-75
2023/06/15 00:40:17;;;;;;;4.80;4.50;;;19.60;37.60;;;;;;20912;6709;119778;-76
2023/06/15 00:42:54;;;;;;;5.20;4.77;;;19.60;37.30;;;;;;20669;6727;308259;-75
2023/06/15 00:45:29;;;;;;;5.27;4.77;;;19.80;37.40;;;;;;20602;6764;288857;-75
2023/06/15 00:48:05;;;;;;;4.87;4.33;;;20.10;36.90;;;;;;20736;6724;117138;-77
2023/06/15 00:50:43;;;;;;;4.37;4.07;;;19.60;37.80;;;;;;20872;6734;121797;-76
2023/06/15 00:53:18;;;;;;;5.30;4.90;;;19.60;37.20;;;;;;20688;6734;335567;-78
2023/06/15 00:55:57;;;;;;;5.07;4.77;;;19.80;37.30;;;;;;20641;6741;280576;-75
2023/06/15 00:58:33;;;;;;;4.77;4.37;;;20.00;36.80;;;;;;20797;6755;118045;-75
2023/06/15 01:01:09;;;;;;;5.13;4.73;;;19.90;36.70;;;;;;20661;6734;310812;-75
2023/06/15 01:03:44;;;;;;;4.63;4.33;;;20.10;37.20;;;;;;20854;6734;120717;-75
2023/06/15 01:06:24;;;;;;;5.75;5.25;;;20.00;36.60;;;;;;20677;6736;307093;-75
2023/06/15 01:09:01;;;;;;;4.60;4.20;;;20.00;36.60;;;;;;20889;6736;117476;-78
2023/06/15 01:11:37;;;;;;;5.17;4.67;;;19.90;36.70;;;;;;20961;6712;116845;-76
2023/06/15 01:14:12;;;;;;;5.03;4.63;;;19.60;37.00;;;;;;20787;6697;305744;-78
2023/06/15 01:16:52;;;;;;;5.05;4.70;;;19.90;37.50;;;;;;20618;6731;341263;-81
2023/06/15 01:19:29;;;;;;;5.00;4.63;;;20.20;36.30;;;;;;20936;6770;116623;-77
2023/06/15 01:22:14;;;;;;;5.13;4.73;;;20.10;36.40;;;;;;20687;6738;277485;-79
2023/06/15 01:24:49;;;;;;;5.10;4.70;;;20.20;36.40;;;;;;20894;6721;124528;-75
2023/06/15 01:27:25;;;;;;;5.28;4.87;;;20.00;36.30;;;;;;20562;6736;312783;-75
2023/06/15 01:30:00;;;;;;;5.00;4.60;;;20.10;36.40;;;;;;20632;6739;277794;-76
2023/06/15 01:32:36;;;;;;;5.45;5.05;;;20.40;36.30;;;;;;20701;6727;279165;-75
2023/06/15 01:35:11;;;;;;;5.20;4.85;;;20.60;36.00;;;;;;20680;6727;334523;-78
2023/06/15 01:37:48;;;;;;;5.00;4.60;;;20.40;36.30;;;;;;20775;6712;122702;-76
2023/06/15 01:40:23;;;;;;;4.67;4.30;;;20.40;35.90;;;;;;20890;6731;118136;-76
2023/06/15 01:42:59;;;;;;;4.47;4.20;;;19.90;36.50;;;;;;20965;6708;116732;-79
2023/06/15 01:45:34;;;;;;;7.63;5.10;;;19.60;37.20;;;;;;20659;6786;278962;-76
2023/06/15 01:48:10;;;;;;;5.50;5.20;;;19.80;38.00;;;;;;20471;6751;308683;-78
2023/06/15 01:50:47;;;;;;;4.97;4.67;;;20.10;37.80;;;;;;20910;6721;121552;-78
2023/06/15 01:53:22;;;;;;;4.60;4.40;;;19.90;37.70;;;;;;20922;6724;117056;-78
2023/06/15 01:55:58;;;;;;;5.60;5.20;;;19.40;38.00;;;;;;20699;6706;313993;-78
2023/06/15 01:58:36;;;;;;;5.27;4.87;;;19.40;38.50;;;;;;20966;6709;117957;-76
2023/06/15 02:01:09;;;;;;;5.30;4.90;;;19.30;38.60;;;;;;20963;6712;117423;-77
2023/06/15 02:03:44;;;;;;;4.97;4.57;;;18.90;38.80;;;;;;20953;6709;118032;-78
2023/06/15 02:06:21;;;;;;;5.33;4.83;;;18.50;39.90;;;;;;20830;6726;116903;-78
2023/06/15 02:08:56;;;;;;;4.97;4.67;;;18.40;39.40;;;;;;20979;6709;117607;-76
2023/06/15 02:11:32;;;;;;;5.43;5.03;;;18.20;39.70;;;;;;20981;6701;120936;-76
2023/06/15 02:14:09;;;;;;;5.73;5.10;;;18.10;39.90;;;;;;21009;6696;117136;-76
2023/06/15 02:16:43;;;;;;;5.85;5.53;;;18.00;40.00;;;;;;20655;6711;278125;-79
2023/06/15 02:19:22;;;;;;;5.80;5.40;;;18.30;40.90;;;;;;20669;6736;275159;-76
2023/06/15 02:21:57;;;;;;;5.57;5.17;;;18.70;40.40;;;;;;20668;6736;311246;-76
2023/06/15 02:24:33;;;;;;;5.90;5.50;;;19.30;39.10;;;;;;20677;6727;306305;-76
2023/06/15 02:27:09;;;;;;;5.50;5.20;;;19.30;39.60;;;;;;20823;6722;117300;-76
2023/06/15 02:29:44;;;;;;;5.40;5.00;;;19.00;39.50;;;;;;20881;6714;117296;-76
2023/06/15 02:32:37;;;;;;;6.33;5.83;;;18.70;39.90;;;;;;20732;6721;306380;-78
2023/06/15 02:35:12;;;;;;;5.27;4.97;;;18.80;40.10;;;;;;20877;6736;116971;-77
2023/06/15 02:37:48;;;;;;;6.27;5.87;;;18.60;39.80;;;;;;20600;6711;281272;-78
2023/06/15 02:40:24;;;;;;;5.78;5.43;;;18.90;39.80;;;;;;20722;6711;333574;-79
2023/06/15 02:43:00;;;;;;;5.80;5.40;;;18.90;39.80;;;;;;20755;6711;309013;-76
2023/06/15 02:45:36;;;;;;;5.93;5.53;;;19.20;39.70;;;;;;20737;6729;338016;-76
2023/06/15 02:48:11;;;;;;;6.20;5.70;;;19.30;39.20;;;;;;20533;6721;308908;-78
2023/06/15 02:50:46;;;;;;;5.57;5.10;;;19.40;39.20;;;;;;20909;6724;119575;-78
2023/06/15 02:53:22;;;;;;;5.20;4.90;;;19.10;39.30;;;;;;20913;6721;117541;-76
2023/06/15 02:55:58;;;;;;;5.20;4.90;;;18.70;39.70;;;;;;20894;6726;120615;-78
2023/06/15 02:58:34;;;;;;;5.95;5.47;;;18.40;40.00;;;;;;20668;6727;310203;-79
2023/06/15 03:01:12;;;;;;;5.87;5.00;;;18.60;40.40;;;;;;20925;6722;116851;-77
2023/06/15 03:03:44;;;;;;;5.30;4.90;;;18.50;40.20;;;;;;20949;6714;117981;-78
2023/06/15 03:06:21;;;;;;;6.13;5.63;;;18.20;40.40;;;;;;20606;6744;280304;-76
2023/06/15 03:08:55;;;;;;;6.00;5.60;;;18.40;40.80;;;;;;20690;6724;277304;-76
2023/06/15 03:11:35;;;;;;;5.83;5.43;;;19.20;40.80;;;;;;20740;6712;276513;-78
2023/06/15 03:14:10;;;;;;;5.37;5.03;;;19.20;40.00;;;;;;20675;6736;279990;-78
2023/06/15 03:16:46;;;;;;;5.50;5.20;;;19.40;40.50;;;;;;20623;6714;294497;-76
2023/06/15 03:19:18;;;;;;;5.53;5.20;;;19.50;40.60;;;;;;20810;6697;275123;-75
2023/06/15 03:21:55;;;;;;;5.37;5.00;;;19.60;40.50;;;;;;21042;6683;116653;-77
2023/06/15 03:24:30;;;;;;;5.30;5.00;;;19.20;40.40;;;;;;20962;6706;116679;-77
2023/06/15 03:27:06;;;;;;;5.10;4.70;;;18.80;40.90;;;;;;20837;6721;117800;-77
2023/06/15 03:29:41;;;;;;;5.93;5.60;;;18.50;41.40;;;;;;20788;6692;275158;-78
2023/06/15 03:32:17;;;;;;;8.00;7.50;;;18.90;41.10;;;;;;20762;6697;307706;-77
2023/06/15 03:34:53;;;;;;;6.40;5.97;;;18.90;41.00;;;;;;20883;6712;117067;-78
2023/06/15 03:37:28;;;;;;;5.90;5.10;;;18.80;40.90;;;;;;20807;6714;117653;-82
2023/06/15 03:40:08;;;;;;;5.40;5.00;;;18.10;41.40;;;;;;20931;6707;117165;-76
2023/06/15 03:42:42;;;;;;;6.07;5.68;;;18.00;41.40;;;;;;20738;6701;334316;-79
2023/06/15 03:45:18;;;;;;;5.20;4.90;;;18.30;41.60;;;;;;20963;6697;117127;-80
2023/06/15 03:47:53;;;;;;;5.40;5.00;;;18.20;41.30;;;;;;20830;6698;119156;-78
2023/06/15 03:50:29;;;;;;;5.37;5.07;;;17.90;41.40;;;;;;20671;6724;306369;-77
2023/06/15 03:53:11;;;;;;;4.57;4.37;;;18.20;41.80;;;;;;20806;6756;264642;-76
2023/06/15 03:55:42;;;;;;;5.43;5.12;;;18.30;42.00;;;;;;20629;6754;278013;-78
2023/06/15 03:58:17;;;;;;;4.50;4.30;;;18.80;40.80;;;;;;20507;6795;281227;-78
2023/06/15 04:00:53;;;;;;;5.12;4.72;;;19.40;39.90;;;;;;20727;6705;279810;-77
2023/06/15 04:03:28;;;;;;;5.43;5.13;;;19.90;39.00;;;;;;21009;6697;117742;-78
2023/06/15 04:06:05;;;;;;;4.47;4.20;;;19.90;38.90;;;;;;21011;6697;120843;-77
2023/06/15 04:08:43;;;;;;;5.03;4.73;;;19.80;39.10;;;;;;20992;6697;118964;-77
2023/06/15 04:11:21;;;;;;;5.03;4.83;;;19.60;39.30;;;;;;20807;6697;304463;-77
2023/06/15 04:13:51;;;;;;;5.35;4.97;;;19.90;38.90;;;;;;20800;6697;333936;-81
2023/06/15 04:16:26;;;;;;;5.10;4.80;;;20.40;38.20;;;;;;20741;6697;278486;-77
2023/06/15 04:19:02;;;;;;;4.70;4.33;;;20.80;37.50;;;;;;21029;6697;117330;-77
2023/06/15 04:21:38;;;;;;;5.00;4.70;;;20.80;37.60;;;;;;20800;6697;304750;-76
2023/06/15 04:24:15;;;;;;;5.30;5.00;;;20.90;37.20;;;;;;20808;6697;305423;-82
2023/06/15 04:26:50;;;;;;;5.23;4.83;;;21.20;36.70;;;;;;20925;6682;118528;-78
2023/06/15 04:29:29;;;;;;;5.30;5.00;;;21.10;36.90;;;;;;20737;6714;276701;-79
2023/06/15 04:32:03;;;;;;;5.43;5.12;;;21.20;36.70;;;;;;20653;6751;336037;-80
2023/06/15 04:34:38;;;;;;;4.87;4.57;;;21.30;36.50;;;;;;20987;6696;119858;-78
2023/06/15 04:37:16;;;;;;;5.60;5.20;;;21.30;36.50;;;;;;20679;6697;307067;-78
2023/06/15 04:39:49;;;;;;;5.87;5.57;;;21.40;36.40;;;;;;20991;6706;116850;-83
2023/06/15 04:42:32;;;;;;;5.60;5.10;;;21.20;36.50;;;;;;20755;6706;280457;-77
2023/06/15 04:45:03;;;;;;;4.50;4.30;;;21.30;36.40;;;;;;20981;6706;118104;-77
2023/06/15 04:47:41;;;;;;;6.10;5.60;;;21.10;36.60;;;;;;20620;6706;278160;-77
2023/06/15 04:50:15;;;;;;;5.30;4.90;;;20.90;37.00;;;;;;20927;6721;116930;-76
2023/06/15 04:52:51;;;;;;;5.70;5.27;;;20.90;36.90;;;;;;20929;6724;118656;-77
2023/06/15 04:55:27;;;;;;;5.70;5.30;;;20.50;37.40;;;;;;20751;6724;295957;-82
2023/06/15 04:58:04;;;;;;;5.40;5.10;;;20.70;37.70;;;;;;20789;6709;120063;-78
2023/06/15 05:00:39;;;;;;;5.68;5.37;;;20.80;38.20;;;;;;20770;6699;275726;-77
2023/06/15 05:03:15;;;;;;;5.73;5.40;;;20.70;36.90;;;;;;20958;6714;117150;-80
2023/06/15 05:05:53;;;;;;;5.90;5.50;;;20.70;37.50;;;;;;20739;6714;281292;-78
2023/06/15 05:08:28;;;;;;;5.60;5.20;;;20.90;37.50;;;;;;20745;6706;276619;-77
2023/06/15 05:11:03;;;;;;;5.20;4.90;;;21.20;37.30;;;;;;21025;6693;117860;-79
2023/06/15 05:13:39;;;;;;;5.60;5.20;;;21.00;37.30;;;;;;20736;6712;309108;-77
2023/06/15 05:16:15;;;;;;;5.70;5.30;;;21.00;37.60;;;;;;20708;6697;338723;-79
2023/06/15 05:18:52;;;;;;;5.43;4.93;;;21.20;37.30;;;;;;20971;6701;118335;-81
2023/06/15 05:21:26;;;;;;;5.33;5.03;;;21.00;38.00;;;;;;20697;6726;305718;-76
2023/06/15 05:24:01;;;;;;;4.87;4.60;;;21.00;37.60;;;;;;20910;6727;116962;-74
2023/06/15 05:26:37;;;;;;;5.47;5.10;;;20.90;37.50;;;;;;20567;6730;278534;-77
2023/06/15 05:29:12;;;;;;;5.55;5.15;;;20.90;37.20;;;;;;20740;6712;275875;-74
2023/06/15 05:31:48;;;;;;;5.13;4.63;;;21.20;37.60;;;;;;20964;6712;117926;-73
2023/06/15 05:34:23;;;;;;;6.40;5.83;;;21.10;37.70;;;;;;20677;6727;306098;-78
2023/06/15 05:36:59;;;;;;;5.90;4.60;;;21.10;38.30;;;;;;20879;6709;123861;-73
2023/06/15 05:39:35;;;;;;;5.50;5.10;;;20.90;38.40;;;;;;20931;6721;116874;-74
2023/06/15 05:42:11;;;;;;;5.60;5.30;;;20.80;39.30;;;;;;20803;6694;309561;-74
2023/06/15 05:44:46;;;;;;;5.43;4.97;;;20.80;39.90;;;;;;20945;6709;117169;-76
2023/06/15 05:47:22;;;;;;;5.23;4.80;;;20.80;38.90;;;;;;20582;6723;312971;-77
2023/06/15 05:49:58;;;;;;;5.30;4.90;;;21.10;38.70;;;;;;20925;6723;118367;-75
2023/06/15 05:52:33;;;;;;;5.53;5.13;;;21.20;38.60;;;;;;20732;6712;276517;-77
2023/06/15 05:55:09;;;;;;;5.35;5.03;;;21.50;38.90;;;;;;20743;6712;337993;-75
2023/06/15 05:57:44;;;;;;;5.23;4.93;;;22.00;38.20;;;;;;20581;6717;276905;-75
2023/06/15 06:00:25;;;;;;;5.13;4.77;;;22.50;37.80;;;;;;21012;6697;122390;-74
2023/06/15 06:02:56;;;;;;;5.67;5.17;;;22.50;37.40;;;;;;20706;6724;305593;-75
2023/06/15 06:05:32;;;;;;;5.30;4.90;;;22.70;36.50;;;;;;20918;6721;122614;-77
2023/06/15 06:08:08;;;;;;;5.60;5.20;;;22.90;36.20;;;;;;20584;6717;311557;-75
2023/06/15 06:10:44;;;;;;;5.37;4.97;;;22.90;36.20;;;;;;20922;6717;116772;-75
2023/06/15 06:13:21;;;;;;;5.33;4.83;;;23.30;37.00;;;;;;20970;6706;119596;-75
2023/06/15 06:15:56;;;;;;;5.82;5.30;;;23.70;37.10;;;;;;20813;6687;305598;-75
2023/06/15 06:18:32;;;;;;;5.23;4.93;;;24.30;35.20;;;;;;20729;6712;307679;-76
2023/06/15 06:21:08;;;;;;;5.37;4.97;;;26.20;32.80;;;;;;20702;6712;276942;-76
2023/06/15 06:23:44;;;;;;;5.10;4.80;;;26.10;32.80;;;;;;20895;6732;117869;-75
2023/06/15 06:26:19;;;;;;;5.27;4.97;;;26.50;32.90;;;;;;20895;6717;116726;-76
2023/06/15 06:28:55;;;;;;;5.40;5.00;;;26.40;32.80;;;;;;20682;6727;306286;-75
2023/06/15 06:31:30;;;;;;;5.33;4.93;;;26.70;31.20;;;;;;20741;6714;276548;-77
2023/06/15 06:34:07;;;;;;;5.32;4.93;;;27.80;30.00;;;;;;20676;6729;306512;-76
2023/06/15 06:36:42;;;;;;;5.27;4.90;;;27.80;29.90;;;;;;20850;6729;117291;-75
2023/06/15 06:39:18;;;;;;;4.80;4.40;;;28.10;30.50;;;;;;20942;6706;117407;-75
2023/06/15 06:41:53;;;;;;;5.43;5.03;;;28.10;30.80;;;;;;20707;6724;289194;-78
2023/06/15 06:44:31;;;;;;;5.37;4.93;;;29.20;28.70;;;;;;20603;6736;307333;-79
2023/06/15 06:47:06;;;;;;;5.03;4.73;;;29.20;28.60;;;;;;20776;6736;123316;-75
2023/06/15 06:49:42;;;;;;;5.17;4.87;;;29.30;29.10;;;;;;20725;6720;304692;-78
2023/06/15 06:52:18;;;;;;;5.73;5.33;;;29.70;28.30;;;;;;20694;6731;310856;-75
2023/06/15 06:54:53;;;;;;;5.47;5.00;;;30.20;27.90;;;;;;20897;6724;118186;-75
2023/06/15 06:57:29;;;;;;;5.43;5.03;;;30.30;28.30;;;;;;20839;6716;116961;-76
2023/06/15 07:00:06;;;;;;;5.37;4.97;;;30.10;28.70;;;;;;20805;6694;280847;-73
2023/06/15 07:02:40;;;;;;;7.03;5.10;;;30.40;28.10;;;;;;20736;6699;303728;-71
2023/06/15 07:05:16;;;;;;;5.60;5.10;;;31.00;27.70;;;;;;20769;6717;280589;-72
2023/06/15 07:07:52;;;;;;;5.53;5.03;;;31.30;27.40;;;;;;20730;6732;118398;-74
2023/06/15 07:10:28;;;;;;;6.00;5.37;;;31.30;27.30;;;;;;20767;6695;304379;-74
2023/06/15 07:13:03;;;;;;;4.80;4.40;;;31.40;26.90;;;;;;20969;6705;118634;-72
2023/06/15 07:15:39;;;;;;;5.27;4.97;;;31.10;27.10;;;;;;20761;6714;305751;-72
2023/06/15 07:18:15;;;;;;;5.40;4.90;;;31.20;27.00;;;;;;20734;6785;117158;-73
2023/06/15 07:20:53;;;;;;;5.00;4.70;;;31.10;27.20;;;;;;20909;6721;115913;-72
2023/06/15 07:23:26;;;;;;;5.17;4.77;;;30.90;27.20;;;;;;20933;6714;116946;-73
2023/06/15 07:26:01;;;;;;;5.13;4.70;;;30.60;27.30;;;;;;20770;6697;281872;-75
2023/06/15 07:28:37;;;;;;;4.90;4.60;;;30.70;26.90;;;;;;20981;6701;117264;-73
2023/06/15 07:31:12;;;;;;;5.30;5.00;;;30.60;26.90;;;;;;21045;6697;119013;-75
2023/06/15 07:33:48;;;;;;;5.57;5.27;;;30.20;27.20;;;;;;21051;6697;122583;-75
2023/06/15 07:36:24;;;;;;;5.23;4.93;;;30.00;27.50;;;;;;20965;6697;149044;-73
2023/06/15 07:39:00;;;;;;;5.10;4.70;;;29.90;27.70;;;;;;20828;6697;275129;-73
2023/06/15 07:41:36;;;;;;;5.18;4.97;;;30.00;27.80;;;;;;20824;6697;307178;-75
2023/06/15 07:44:12;;;;;;;5.20;4.90;;;30.30;27.50;;;;;;20839;6697;275112;-75
2023/06/15 07:46:47;;;;;;;5.00;4.70;;;30.60;27.00;;;;;;20853;6697;117640;-75
2023/06/15 07:49:22;;;;;;;4.67;4.40;;;30.40;27.20;;;;;;20961;6697;117225;-75
2023/06/15 07:51:58;;;;;;;5.17;4.83;;;30.00;27.40;;;;;;20741;6706;299012;-75
2023/06/15 07:54:35;;;;;;;5.47;4.97;;;30.00;27.40;;;;;;20759;6697;311707;-74
2023/06/15 07:57:10;;;;;;;4.90;4.50;;;30.20;27.30;;;;;;20914;6697;117016;-75
2023/06/15 07:59:46;;;;;;;5.37;4.97;;;30.00;27.50;;;;;;20787;6699;278449;-74
2023/06/15 08:02:23;;;;;;;4.90;4.67;;;30.10;27.40;;;;;;20969;6709;117405;-74
2023/06/15 08:04:58;;;;;;;5.43;5.07;;;29.90;27.50;;;;;;20936;6721;117396;-75
2023/06/15 08:07:34;;;;;;;5.20;4.90;;;29.60;27.60;;;;;;20810;6724;117069;-74
2023/06/15 08:10:10;;;;;;;4.63;4.23;;;29.40;27.80;;;;;;20935;6717;115807;-74
2023/06/15 08:12:45;;;;;;;4.60;4.30;;;29.20;28.00;;;;;;20924;6721;116729;-76
2023/06/15 08:15:21;;;;;;;6.67;5.00;;;29.00;28.30;;;;;;20985;6697;116944;-73
2023/06/15 08:17:57;;;;;;;5.47;5.00;;;29.40;28.40;;;;;;20550;6727;280430;-73
2023/06/15 08:20:33;;;;;;;5.43;5.03;;;29.40;28.40;;;;;;20769;6712;334437;-73
2023/06/15 08:23:08;;;;;;;4.73;4.43;;;29.90;27.70;;;;;;20744;6716;275746;-75
2023/06/15 08:25:47;;;;;;;5.27;4.87;;;30.20;27.50;;;;;;20856;6739;115981;-73
2023/06/15 08:28:20;;;;;;;5.00;4.60;;;30.00;27.70;;;;;;20882;6736;116843;-73
2023/06/15 08:30:56;;;;;;;5.40;5.00;;;29.90;27.60;;;;;;20758;6700;291085;-73
2023/06/15 08:33:31;;;;;;;5.50;5.10;;;30.10;27.70;;;;;;20954;6712;118394;-75
2023/06/15 08:36:07;;;;;;;5.30;4.90;;;30.10;27.70;;;;;;20687;6712;312473;-74
2023/06/15 08:38:43;;;;;;;4.50;4.30;;;30.20;27.70;;;;;;20941;6712;117314;-73
2023/06/15 08:41:19;;;;;;;4.83;4.40;;;30.20;27.90;;;;;;20965;6712;118385;-73
2023/06/15 08:43:54;;;;;;;4.77;4.43;;;30.10;27.70;;;;;;20963;6701;116625;-75
2023/06/15 08:46:33;;;;;;;4.97;4.67;;;30.00;27.80;;;;;;20681;6697;278281;-73
2023/06/15 08:49:06;;;;;;;5.63;5.13;;;30.20;27.80;;;;;;20674;6742;276797;-76
2023/06/15 08:51:42;;;;;;;5.40;4.90;;;30.90;27.40;;;;;;20742;6712;310677;-73
2023/06/15 08:54:18;;;;;;;5.60;5.10;;;30.90;27.40;;;;;;20726;6721;280698;-73
2023/06/15 08:56:53;;;;;;;5.53;5.03;;;31.10;26.90;;;;;;20850;6721;118750;-73
2023/06/15 08:59:29;;;;;;;5.00;4.70;;;31.00;26.80;;;;;;20935;6721;116789;-73
2023/06/15 09:02:06;;;;;;;4.77;4.30;;;30.70;27.00;;;;;;20935;6712;118972;-74
2023/06/15 09:04:40;;;;;;;5.63;4.80;;;30.40;27.20;;;;;;20901;6729;120271;-72
2023/06/15 09:07:15;;;;;;;5.07;4.50;;;30.20;27.40;;;;;;20651;6712;316037;-72
2023/06/15 09:10:15;;;;;;;5.07;4.20;;;30.60;27.30;;;;;;20996;6701;116968;-73
2023/06/15 09:12:53;;;;;;;4.63;4.33;;;30.60;27.10;;;;;;20932;6712;117210;-71
2023/06/15 09:15:29;;;;;;;33.37;4.87;;;30.50;27.00;;;;;;20910;6727;117182;-73
2023/06/15 09:18:05;;;;;;;4.10;3.90;;;30.30;27.20;;;;;;20788;6724;117725;-71
2023/06/15 09:20:41;;;;;;;4.73;4.30;;;30.20;27.10;;;;;;20952;6709;126486;-73
2023/06/15 09:23:17;;;;;;;4.37;4.07;;;30.10;27.20;;;;;;20962;6709;116775;-74
2023/06/15 09:25:54;;;;;;;5.20;4.70;;;30.10;27.20;;;;;;20774;6697;305739;-73
2023/06/15 09:28:30;;;;;;;4.10;3.90;;;30.50;27.00;;;;;;20891;6736;141863;-74
2023/06/15 09:31:05;;;;;;;4.30;4.00;;;30.60;26.60;;;;;;20758;6706;309640;-73
2023/06/15 09:33:40;;;;;;;4.73;4.07;;;30.90;25.40;;;;;;20953;6714;117356;-74
2023/06/15 09:36:17;;;;;;;4.57;4.17;;;31.00;26.40;;;;;;20709;6706;307784;-74
2023/06/15 09:38:55;;;;;;;4.60;4.20;;;31.00;25.70;;;;;;20747;6706;276688;-73
2023/06/15 09:41:31;;;;;;;4.60;3.97;;;31.30;25.40;;;;;;20766;6706;305043;-74
2023/06/15 09:44:03;;;;;;;4.00;3.80;;;31.60;24.40;;;;;;20768;6706;279718;-76
2023/06/15 09:46:40;;;;;;;4.27;3.97;;;31.80;24.50;;;;;;20633;6691;297101;-74
2023/06/15 09:49:23;;;;;;;4.83;3.60;;;31.70;24.40;;;;;;20923;6723;120824;-75
2023/06/15 09:52:00;;;;;;;4.37;3.97;;;31.60;24.70;;;;;;20710;6723;308695;-74
2023/06/15 09:54:37;;;;;;;3.87;3.67;;;31.50;24.80;;;;;;20715;6706;294502;-72
2023/06/15 09:57:11;;;;;;;4.13;3.93;;;32.20;24.30;;;;;;20616;6722;312198;-73
2023/06/15 09:59:47;;;;;;;4.20;3.93;;;32.20;24.00;;;;;;20719;6709;306512;-74
2023/06/15 10:02:22;;;;;;;4.10;3.80;;;32.40;23.40;;;;;;20737;6714;309988;-75
2023/06/15 10:04:58;;;;;;;4.33;3.97;;;32.30;23.20;;;;;;20952;6714;117067;-72
2023/06/15 10:07:33;;;;;;;5.57;4.10;;;31.80;23.80;;;;;;20573;6717;305531;-73
2023/06/15 10:10:12;;;;;;;4.70;4.40;;;31.70;24.00;;;;;;20753;6699;280142;-72
2023/06/15 10:12:45;;;;;;;4.57;4.00;;;31.80;23.60;;;;;;20672;6714;305513;-72
2023/06/15 10:15:20;;;;;;;4.60;4.20;;;32.10;23.10;;;;;;20669;6722;308107;-74
2023/06/15 10:17:56;;;;;;;4.27;3.70;;;32.40;22.80;;;;;;20467;6739;292722;-72
2023/06/15 10:20:33;;;;;;;4.20;3.83;;;32.40;22.70;;;;;;20775;6694;292755;-72
2023/06/15 10:23:12;;;;;;;4.10;3.50;;;32.60;23.00;;;;;;20996;6699;117447;-72
2023/06/15 10:25:47;;;;;;;4.23;3.83;;;32.50;23.20;;;;;;20993;6699;116794;-72
2023/06/15 10:28:25;;;;;;;4.20;3.80;;;32.30;23.40;;;;;;21036;6684;116770;-74
2023/06/15 10:31:02;;;;;;;4.13;3.83;;;31.90;23.40;;;;;;21042;6684;122369;-72
2023/06/15 10:33:37;;;;;;;4.20;3.60;;;31.60;23.60;;;;;;21026;6685;116998;-73
2023/06/15 10:36:15;;;;;;;4.07;3.70;;;31.30;24.00;;;;;;20791;6686;311426;-73
2023/06/15 10:38:51;;;;;;;3.90;3.70;;;31.10;22.90;;;;;;20757;6700;305024;-74
2023/06/15 10:41:27;;;;;;;4.83;3.87;;;31.10;22.80;;;;;;20665;6736;310387;-75
2023/06/15 10:44:02;;;;;;;4.13;3.50;;;31.20;23.50;;;;;;21013;6705;116772;-75
2023/06/15 10:46:38;;;;;;;4.10;3.60;;;31.30;23.40;;;;;;20891;6692;118248;-76
2023/06/15 10:49:13;;;;;;;3.70;3.50;;;31.10;23.20;;;;;;20944;6727;116855;-76
2023/06/15 10:51:49;;;;;;;4.10;3.80;;;31.00;23.30;;;;;;20710;6729;309620;-76
2023/06/15 10:54:27;;;;;;;4.00;3.60;;;31.40;23.70;;;;;;20693;6727;276281;-77
2023/06/15 10:57:03;;;;;;;4.33;3.93;;;31.90;23.50;;;;;;20540;6734;307909;-76
2023/06/15 10:59:41;;;;;;;3.90;3.60;;;32.40;23.30;;;;;;20732;6716;304831;-77
2023/06/15 11:02:27;;;;;;;3.73;3.53;;;32.70;22.30;;;;;;20744;6714;276139;-74
2023/06/15 11:05:09;;;;;;;3.80;3.60;;;32.90;21.80;;;;;;20752;6712;304806;-74
2023/06/15 11:07:45;;;;;;;3.93;3.63;;;32.60;21.70;;;;;;20627;6712;278286;-75
2023/06/15 11:10:28;;;;;;;4.13;3.80;;;32.60;21.70;;;;;;20743;6712;284683;-74
2023/06/15 11:13:03;;;;;;;3.80;3.50;;;32.50;22.30;;;;;;20715;6727;307574;-75
2023/06/15 11:15:41;;;;;;;3.47;3.17;;;32.40;21.50;;;;;;20933;6728;123640;-73
2023/06/15 11:18:15;;;;;;;3.57;3.27;;;32.40;21.50;;;;;;20776;6769;118136;-74
2023/06/15 11:20:51;;;;;;;3.07;2.97;;;32.20;21.80;;;;;;20859;6736;117229;-78
2023/06/15 11:23:29;;;;;;;3.90;3.60;;;32.00;21.80;;;;;;20725;6721;277490;-78
2023/06/15 11:26:03;;;;;;;4.60;3.93;;;32.20;22.30;;;;;;20643;6739;282722;-74
2023/06/15 11:28:41;;;;;;;3.90;3.63;;;32.20;22.30;;;;;;20594;6754;280063;-74
2023/06/15 11:31:16;;;;;;;3.90;3.60;;;32.30;22.10;;;;;;20684;6736;306291;-73
2023/06/15 11:33:50;;;;;;;3.70;3.50;;;32.20;22.00;;;;;;20665;6738;297005;-74
2023/06/15 11:36:26;;;;;;;3.73;3.43;;;32.40;22.10;;;;;;20927;6692;117303;-75
2023/06/15 11:39:01;;;;;;;3.42;3.22;;;32.30;22.40;;;;;;20737;6707;309694;-77
2023/06/15 11:41:37;;;;;;;4.07;3.60;;;32.30;21.50;;;;;;20711;6722;277396;-75
2023/06/15 11:44:12;;;;;;;3.73;3.53;;;32.40;21.50;;;;;;20931;6720;117213;-75
2023/06/15 11:46:55;;;;;;;3.70;3.50;;;32.40;21.70;;;;;;20670;6706;307842;-75
2023/06/15 11:49:31;;;;;;;3.17;3.07;;;32.40;21.50;;;;;;20863;6736;117921;-76
2023/06/15 11:52:07;;;;;;;3.72;3.50;;;32.40;21.40;;;;;;20678;6751;337610;-76
2023/06/15 11:54:43;;;;;;;3.23;3.13;;;32.40;21.00;;;;;;20898;6717;121313;-74
2023/06/15 11:57:27;;;;;;;4.07;3.77;;;32.20;21.10;;;;;;20634;6712;282700;-75
2023/06/15 11:59:54;;;;;;;3.90;3.60;;;32.00;21.50;;;;;;20717;6712;306182;-75
2023/06/15 12:02:30;;;;;;;3.70;3.50;;;31.70;22.20;;;;;;20719;6712;304730;-76
2023/06/15 12:05:06;;;;;;;3.87;3.60;;;31.70;22.50;;;;;;20784;6697;275563;-76
2023/06/15 12:07:42;;;;;;;4.07;3.77;;;31.80;22.70;;;;;;20826;6697;117066;-74
2023/06/15 12:10:18;;;;;;;4.17;3.77;;;31.70;23.20;;;;;;20810;6697;275621;-74
2023/06/15 12:12:54;;;;;;;3.63;3.43;;;31.60;23.10;;;;;;20783;6697;308126;-74
2023/06/15 12:15:29;;;;;;;3.90;3.60;;;31.70;22.40;;;;;;20809;6697;309543;-76
2023/06/15 12:18:08;;;;;;;3.90;3.60;;;31.90;22.70;;;;;;20797;6697;117368;-76
2023/06/15 12:20:44;;;;;;;4.10;3.80;;;31.80;22.60;;;;;;20723;6721;305748;-76
2023/06/15 12:23:28;;;;;;;3.57;3.43;;;31.80;21.80;;;;;;20951;6729;116951;-76
2023/06/15 12:26:04;;;;;;;3.87;3.67;;;31.60;22.00;;;;;;20761;6714;276070;-74
2023/06/15 12:28:40;;;;;;;4.67;3.53;;;31.50;22.10;;;;;;20923;6723;118056;-75
2023/06/15 12:31:15;;;;;;;3.70;3.50;;;31.20;22.30;;;;;;20936;6724;116972;-74
2023/06/15 12:33:52;;;;;;;3.87;3.60;;;31.00;21.80;;;;;;20681;6736;291218;-74
2023/06/15 12:36:28;;;;;;;5.07;3.40;;;31.00;21.80;;;;;;20828;6736;118088;-75
2023/06/15 12:39:07;;;;;;;3.70;3.50;;;30.90;22.30;;;;;;20934;6721;117025;-76
2023/06/15 12:41:44;;;;;;;4.67;3.20;;;30.70;22.50;;;;;;20851;6736;118162;-75
2023/06/15 12:44:17;;;;;;;4.10;3.90;;;30.50;22.80;;;;;;20725;6721;276596;-76
2023/06/15 12:46:54;;;;;;;3.40;3.30;;;30.70;22.90;;;;;;20815;6727;117213;-75
2023/06/15 12:49:31;;;;;;;4.03;3.43;;;30.40;23.20;;;;;;20967;6712;116796;-75
2023/06/15 12:52:06;;;;;;;3.77;3.57;;;30.40;23.20;;;;;;20966;6712;116852;-76
2023/06/15 12:54:41;;;;;;;3.60;3.30;;;30.20;23.40;;;;;;20991;6712;120524;-75
2023/06/15 12:57:17;;;;;;;3.90;3.60;;;30.10;23.50;;;;;;20847;6690;117437;-75
2023/06/15 12:59:52;;;;;;;3.87;3.67;;;30.10;23.60;;;;;;20761;6706;276081;-77
2023/06/15 13:02:29;;;;;;;4.17;3.80;;;30.70;23.20;;;;;;20724;6714;309536;-75
2023/06/15 13:05:05;;;;;;;3.90;3.70;;;30.70;23.20;;;;;;20742;6714;282634;-75
2023/06/15 13:07:40;;;;;;;4.00;3.67;;;31.00;23.20;;;;;;20556;6714;308062;-76
2023/06/15 13:10:16;;;;;;;3.87;3.67;;;31.10;22.70;;;;;;20903;6729;116881;-76
2023/06/15 13:12:51;;;;;;;4.43;4.03;;;30.80;22.90;;;;;;20632;6744;340623;-76
2023/06/15 13:15:27;;;;;;;4.00;3.70;;;30.70;23.00;;;;;;20685;6729;276273;-76
2023/06/15 13:18:02;;;;;;;6.77;3.73;;;30.80;23.20;;;;;;20722;6729;117219;-76
2023/06/15 13:20:38;;;;;;;3.90;3.70;;;30.60;23.40;;;;;;20713;6717;305844;-76